createdAt,value
2019-03-30T00:02:22.848Z,66.43
2019-03-30T00:04:53.015Z,63.73
2019-03-30T00:07:23.233Z,71.40
2019-03-30T00:09:53.400Z,66.80
2019-03-30T00:12:23.603Z,64.73
2019-03-30T00:14:53.776Z,66.97
2019-03-30T00:17:24.309Z,62.63
2019-03-30T00:19:54.785Z,65.83
2019-03-30T00:22:25.013Z,74.73
2019-03-30T00:24:55.164Z,63.20
2019-03-30T00:27:25.476Z,64.53
2019-03-30T00:29:55.645Z,57.77
2019-03-30T00:32:25.816Z,60.37
2019-03-30T00:34:55.984Z,64.40
2019-03-30T00:37:26.161Z,60.47
2019-03-30T00:39:56.336Z,62.87
2019-03-30T00:42:26.524Z,66.73
2019-03-30T00:44:56.736Z,58.33
2019-03-30T00:47:27.004Z,56.60
2019-03-30T00:49:57.305Z,64.63
2019-03-30T00:52:27.480Z,55.67
2019-03-30T00:54:57.767Z,60.27
2019-03-30T00:57:27.993Z,58.63
2019-03-30T00:59:58.262Z,59.57
2019-03-30T01:02:28.860Z,54.90
2019-03-30T01:04:59.104Z,62.50
2019-03-30T01:07:29.618Z,60.97
2019-03-30T01:09:59.097Z,61.07
2019-03-30T01:12:29.329Z,54.30
2019-03-30T01:14:59.508Z,56.63
2019-03-30T01:17:29.681Z,57.70
2019-03-30T01:20:03.034Z,55.50
2019-03-30T01:22:32.034Z,59.23
2019-03-30T01:25:02.196Z,64.43
2019-03-30T01:27:32.732Z,62.40
2019-03-30T01:30:02.979Z,57.93
2019-03-30T01:32:34.988Z,58.67
2019-03-30T01:35:05.628Z,61.63
2019-03-30T01:37:35.906Z,75.70
2019-03-30T01:40:07.343Z,59.77
2019-03-30T01:42:37.152Z,58.53
2019-03-30T01:45:07.349Z,57.40
2019-03-30T01:47:36.788Z,60.60
2019-03-30T01:50:17.349Z,60.63
2019-03-30T01:52:38.677Z,64.70
2019-03-30T01:55:08.416Z,65.73
2019-03-30T01:57:37.799Z,80.97
2019-03-30T02:00:07.488Z,58.70
2019-03-30T02:02:37.036Z,68.87
2019-03-30T02:05:06.812Z,63.47
2019-03-30T02:07:36.203Z,65.20
2019-03-30T02:10:07.146Z,59.40
2019-03-30T02:12:36.499Z,60.87
2019-03-30T02:15:06.053Z,61.70
2019-03-30T02:17:35.411Z,63.30
2019-03-30T02:20:04.804Z,58.87
2019-03-30T02:22:34.433Z,61.50
2019-03-30T02:25:04.039Z,58.73
2019-03-30T02:27:33.750Z,63.77
2019-03-30T02:30:03.206Z,57.00
2019-03-30T02:32:32.647Z,58.40
2019-03-30T02:35:02.029Z,56.10
2019-03-30T02:37:31.452Z,62.33
2019-03-30T02:40:00.822Z,61.73
2019-03-30T02:42:30.267Z,59.27
2019-03-30T02:44:59.638Z,57.13
2019-03-30T02:47:29.015Z,62.60
2019-03-30T02:49:58.368Z,54.70
2019-03-30T02:52:27.728Z,60.23
2019-03-30T02:54:57.116Z,59.37
2019-03-30T02:57:26.555Z,59.33
2019-03-30T02:59:55.912Z,55.80
2019-03-30T03:02:25.299Z,57.50
2019-03-30T03:04:54.648Z,55.07
2019-03-30T03:07:24.034Z,61.10
2019-03-30T03:09:53.385Z,57.40
2019-03-30T03:12:22.789Z,57.97
2019-03-30T03:14:52.142Z,58.00
2019-03-30T03:17:21.513Z,60.80
2019-03-30T03:19:50.882Z,55.73
2019-03-30T03:22:20.248Z,56.47
2019-03-30T03:24:49.641Z,62.43
2019-03-30T03:27:19.020Z,59.97
2019-03-30T03:29:48.401Z,56.90
2019-03-30T03:32:17.772Z,54.33
2019-03-30T03:34:47.172Z,59.27
2019-03-30T03:37:16.595Z,56.37
2019-03-30T03:39:45.963Z,56.50
2019-03-30T03:42:15.324Z,58.30
2019-03-30T03:44:44.711Z,56.43
2019-03-30T03:47:14.069Z,54.10
2019-03-30T03:49:43.447Z,56.80
2019-03-30T03:52:12.911Z,58.10
2019-03-30T03:54:42.752Z,61.83
2019-03-30T03:57:13.055Z,57.67
2019-03-30T03:59:42.496Z,54.53
2019-03-30T04:02:13.417Z,56.00
2019-03-30T04:04:47.524Z,54.83
2019-03-30T04:07:17.647Z,54.13
2019-03-30T04:09:48.871Z,57.53
2019-03-30T04:12:19.807Z,58.93
2019-03-30T04:14:51.765Z,69.77
2019-03-30T04:17:21.600Z,59.90
2019-03-30T04:19:51.083Z,55.70
2019-03-30T04:22:20.733Z,55.10
2019-03-30T04:24:50.089Z,53.10
2019-03-30T04:27:19.804Z,57.03
2019-03-30T04:29:49.232Z,58.70
2019-03-30T04:32:18.615Z,55.93
2019-03-30T04:34:47.987Z,53.93
2019-03-30T04:37:17.380Z,55.10
2019-03-30T04:39:46.755Z,55.93
2019-03-30T04:42:16.156Z,54.17
2019-03-30T04:44:46.575Z,50.17
2019-03-30T04:47:15.945Z,61.43
2019-03-30T04:49:45.323Z,67.40
2019-03-30T04:52:14.677Z,53.70
2019-03-30T04:54:44.059Z,59.67
2019-03-30T04:57:13.413Z,51.10
2019-03-30T04:59:42.784Z,60.63
2019-03-30T05:02:12.132Z,48.17
2019-03-30T05:04:41.521Z,54.03
2019-03-30T05:07:11.189Z,49.20
2019-03-30T05:09:40.571Z,51.67
2019-03-30T05:12:09.911Z,48.87
2019-03-30T05:14:39.275Z,48.90
2019-03-30T05:17:08.663Z,49.17
2019-03-30T05:19:38.076Z,52.40
2019-03-30T05:22:12.803Z,54.60
2019-03-30T05:24:38.739Z,52.00
2019-03-30T05:27:08.137Z,50.13
2019-03-30T05:29:37.493Z,50.57
2019-03-30T05:32:06.868Z,53.93
2019-03-30T05:34:36.223Z,47.03
2019-03-30T05:37:05.628Z,53.43
2019-03-30T05:39:34.992Z,50.60
2019-03-30T05:42:05.440Z,50.43
2019-03-30T05:44:34.791Z,48.83
2019-03-30T05:47:04.514Z,48.27
2019-03-30T05:49:33.871Z,49.63
2019-03-30T05:52:03.242Z,49.57
2019-03-30T05:54:32.625Z,48.20
2019-03-30T05:57:07.747Z,48.00
2019-03-30T05:59:37.135Z,44.40
2019-03-30T06:02:06.496Z,47.83
2019-03-30T06:04:35.892Z,41.07
2019-03-30T06:07:06.327Z,42.60
2019-03-30T06:09:35.723Z,45.00
2019-03-30T06:12:05.071Z,49.00
2019-03-30T06:14:34.447Z,41.03
2019-03-30T06:17:03.881Z,44.87
2019-03-30T06:19:33.249Z,41.37
2019-03-30T06:22:02.708Z,42.90
2019-03-30T06:24:32.067Z,41.30
2019-03-30T06:27:01.567Z,41.40
2019-03-30T06:29:30.922Z,38.37
2019-03-30T06:32:00.555Z,38.57
2019-03-30T06:34:29.921Z,34.27
2019-03-30T06:36:59.308Z,43.50
2019-03-30T06:39:28.666Z,34.17
2019-03-30T06:41:58.412Z,35.63
2019-03-30T06:44:27.837Z,36.00
2019-03-30T06:46:57.227Z,35.63
2019-03-30T06:49:26.603Z,37.40
2019-03-30T06:51:55.950Z,39.60
2019-03-30T06:54:25.328Z,39.73
2019-03-30T06:56:54.675Z,56.00
2019-03-30T06:59:24.036Z,42.27
2019-03-30T07:01:53.405Z,43.40
2019-03-30T07:04:23.105Z,39.30
2019-03-30T07:06:52.540Z,37.70
2019-03-30T07:09:22.675Z,39.60
2019-03-30T07:11:53.995Z,38.93
2019-03-30T07:14:24.151Z,38.50
2019-03-30T07:16:54.523Z,38.43
2019-03-30T07:19:25.854Z,35.43
2019-03-30T07:21:55.217Z,33.37
2019-03-30T07:24:24.578Z,35.20
2019-03-30T07:26:54.047Z,33.00
2019-03-30T07:29:23.435Z,34.77
2019-03-30T07:31:52.812Z,37.90
2019-03-30T07:34:22.175Z,32.03
2019-03-30T07:36:51.535Z,34.77
2019-03-30T07:39:20.915Z,36.07
2019-03-30T07:41:50.267Z,36.00
2019-03-30T07:44:19.656Z,28.80
2019-03-30T07:46:49.020Z,31.53
2019-03-30T07:49:18.385Z,36.70
2019-03-30T07:51:47.734Z,34.13
2019-03-30T07:54:17.125Z,30.27
2019-03-30T07:56:46.478Z,31.20
2019-03-30T07:59:15.844Z,33.43
2019-03-30T08:01:45.204Z,33.27
2019-03-30T08:04:14.588Z,38.67
2019-03-30T08:06:43.966Z,38.53
2019-03-30T08:09:13.457Z,36.47
2019-03-30T08:11:43.899Z,31.77
2019-03-30T08:14:13.251Z,29.23
2019-03-30T08:16:42.639Z,27.53
2019-03-30T08:19:12.034Z,31.53
2019-03-30T08:21:41.441Z,34.20
2019-03-30T08:24:10.800Z,28.23
2019-03-30T08:26:40.194Z,28.30
2019-03-30T08:29:09.580Z,27.63
2019-03-30T08:31:38.961Z,29.27
2019-03-30T08:34:09.016Z,25.43
2019-03-30T08:36:39.203Z,25.90
2019-03-30T08:39:10.334Z,31.47
2019-03-30T08:41:40.494Z,32.50
2019-03-30T08:44:10.884Z,26.50
2019-03-30T08:46:41.053Z,26.20
2019-03-30T08:49:11.651Z,28.30
2019-03-30T08:51:41.843Z,30.87
2019-03-30T08:54:12.009Z,29.93
2019-03-30T08:56:42.178Z,27.47
2019-03-30T08:59:12.341Z,29.90
2019-03-30T09:01:42.873Z,31.73
2019-03-30T09:04:13.031Z,26.47
2019-03-30T09:06:43.195Z,30.30
2019-03-30T09:09:13.615Z,30.97
2019-03-30T09:11:43.906Z,35.33
2019-03-30T09:14:14.128Z,30.73
2019-03-30T09:16:44.372Z,29.27
2019-03-30T09:19:14.519Z,29.20
2019-03-30T09:21:44.993Z,32.40
2019-03-30T09:24:15.139Z,34.27
2019-03-30T09:26:45.321Z,31.83
2019-03-30T09:29:15.535Z,27.60
2019-03-30T09:31:45.704Z,27.43
2019-03-30T09:34:15.858Z,29.10
2019-03-30T09:36:46.141Z,31.17
2019-03-30T09:39:16.592Z,36.70
2019-03-30T09:41:46.824Z,33.43
2019-03-30T09:44:16.611Z,26.17
2019-03-30T09:46:45.967Z,28.20
2019-03-30T09:49:16.075Z,31.10
2019-03-30T09:51:46.243Z,31.30
2019-03-30T09:54:23.530Z,24.47
2019-03-30T09:56:48.229Z,25.87
2019-03-30T09:59:18.372Z,24.67
2019-03-30T10:01:48.641Z,24.73
2019-03-30T10:04:18.800Z,38.40
2019-03-30T10:06:50.089Z,24.63
2019-03-30T10:09:20.337Z,27.03
2019-03-30T10:11:50.498Z,26.27
2019-03-30T10:14:20.654Z,23.40
2019-03-30T10:16:50.919Z,25.87
2019-03-30T10:19:21.381Z,25.73
2019-03-30T10:21:51.539Z,23.50
2019-03-30T10:24:21.759Z,27.80
2019-03-30T10:26:51.343Z,26.83
2019-03-30T10:29:20.764Z,27.20
2019-03-30T10:31:50.200Z,28.20
2019-03-30T10:34:19.559Z,26.47
2019-03-30T10:36:48.996Z,24.70
2019-03-30T10:39:18.522Z,24.87
2019-03-30T10:41:48.016Z,24.03
2019-03-30T10:44:17.768Z,34.30
2019-03-30T10:46:47.196Z,31.43
2019-03-30T10:49:16.627Z,29.40
2019-03-30T10:51:46.059Z,27.37
2019-03-30T10:54:15.459Z,27.53
2019-03-30T10:56:44.896Z,28.97
2019-03-30T10:59:15.324Z,28.10
2019-03-30T11:01:44.745Z,24.10
2019-03-30T11:04:14.531Z,32.20
2019-03-30T11:06:44.256Z,28.13
2019-03-30T11:09:13.665Z,29.77
2019-03-30T11:11:43.119Z,36.07
2019-03-30T11:14:12.543Z,29.63
2019-03-30T11:16:41.975Z,36.90
2019-03-30T11:19:11.380Z,32.63
2019-03-30T11:21:40.811Z,35.00
2019-03-30T11:24:10.254Z,39.73
2019-03-30T11:26:39.694Z,33.40
2019-03-30T11:29:09.134Z,37.37
2019-03-30T11:31:38.603Z,37.13
2019-03-30T11:34:08.020Z,32.83
2019-03-30T11:36:37.472Z,32.10
2019-03-30T11:39:06.888Z,30.40
2019-03-30T11:41:36.323Z,29.70
2019-03-30T11:44:05.761Z,28.97
2019-03-30T11:46:35.190Z,25.60
2019-03-30T11:49:04.601Z,28.80
2019-03-30T11:51:34.383Z,30.57
2019-03-30T11:54:05.445Z,27.57
2019-03-30T11:56:35.023Z,39.80
2019-03-30T11:59:04.452Z,28.47
2019-03-30T12:01:33.883Z,29.87
2019-03-30T12:04:03.631Z,27.87
2019-03-30T12:06:33.067Z,30.70
2019-03-30T12:09:02.494Z,26.30
2019-03-30T12:11:31.999Z,27.50
2019-03-30T12:14:01.413Z,27.50
2019-03-30T12:16:30.780Z,24.93
2019-03-30T12:19:00.132Z,27.00
2019-03-30T12:21:29.509Z,25.47
2019-03-30T12:23:58.891Z,24.37
2019-03-30T12:26:28.479Z,40.90
2019-03-30T12:28:57.929Z,25.60
2019-03-30T12:31:27.354Z,22.00
2019-03-30T12:33:56.865Z,29.17
2019-03-30T12:36:26.268Z,24.07
2019-03-30T12:38:56.590Z,20.50
2019-03-30T12:41:26.037Z,24.53
2019-03-30T12:43:55.504Z,22.40
2019-03-30T12:46:25.168Z,26.03
2019-03-30T12:48:54.551Z,22.03
2019-03-30T12:51:23.923Z,21.43
2019-03-30T12:53:53.333Z,20.03
2019-03-30T12:56:22.794Z,23.57
2019-03-30T12:58:53.564Z,21.30
2019-03-30T13:01:22.960Z,20.30
2019-03-30T13:03:52.345Z,22.73
2019-03-30T13:06:21.836Z,23.03
2019-03-30T13:08:51.249Z,17.87
2019-03-30T13:11:20.647Z,20.70
2019-03-30T13:13:50.050Z,24.30
2019-03-30T13:16:19.485Z,22.43
2019-03-30T13:18:49.136Z,18.60
2019-03-30T13:21:18.504Z,17.30
2019-03-30T13:23:47.887Z,19.03
2019-03-30T13:26:17.257Z,18.10
2019-03-30T13:28:46.960Z,17.63
2019-03-30T13:31:17.128Z,21.47
2019-03-30T13:33:47.302Z,19.10
2019-03-30T13:36:18.362Z,21.60
2019-03-30T13:38:48.535Z,16.30
2019-03-30T13:41:19.001Z,15.90
2019-03-30T13:43:49.194Z,21.10
2019-03-30T13:46:19.631Z,16.27
2019-03-30T13:48:49.787Z,16.10
2019-03-30T13:51:20.016Z,19.73
2019-03-30T13:53:50.172Z,16.90
2019-03-30T13:56:20.337Z,16.67
2019-03-30T13:58:50.564Z,16.27
2019-03-30T14:01:20.712Z,15.17
2019-03-30T14:03:50.880Z,15.10
2019-03-30T14:06:21.028Z,16.27
2019-03-30T14:08:51.175Z,14.80
2019-03-30T14:11:21.335Z,16.30
2019-03-30T14:13:51.507Z,16.37
2019-03-30T14:16:21.731Z,16.00
2019-03-30T14:18:51.903Z,22.93
2019-03-30T14:21:22.051Z,16.70
2019-03-30T14:23:52.303Z,15.07
2019-03-30T14:26:31.251Z,18.90
2019-03-30T14:28:54.574Z,14.43
2019-03-30T14:31:24.716Z,13.77
2019-03-30T14:33:54.883Z,25.80
2019-03-30T14:36:25.363Z,15.70
2019-03-30T14:38:55.527Z,14.77
2019-03-30T14:41:25.668Z,16.03
2019-03-30T14:43:55.860Z,15.70
2019-03-30T14:46:26.343Z,13.83
2019-03-30T14:48:56.570Z,15.40
2019-03-30T14:51:26.735Z,19.60
2019-03-30T14:53:56.990Z,14.90
2019-03-30T14:56:27.168Z,23.30
2019-03-30T14:59:09.354Z,14.30
2019-03-30T15:01:29.267Z,13.60
2019-03-30T15:03:59.531Z,17.90
2019-03-30T15:06:29.682Z,14.83
2019-03-30T15:08:59.833Z,18.87
2019-03-30T15:11:30.004Z,21.10
2019-03-30T15:14:00.180Z,16.30
2019-03-30T15:16:30.319Z,12.83
2019-03-30T15:19:38.947Z,19.70
2019-03-30T15:22:09.084Z,14.43
2019-03-30T15:24:40.220Z,13.47
2019-03-30T15:27:10.387Z,20.83
2019-03-30T15:29:40.600Z,14.93
2019-03-30T15:32:10.747Z,20.10
2019-03-30T15:34:40.939Z,19.07
2019-03-30T15:37:11.156Z,19.60
2019-03-30T15:39:41.668Z,16.10
2019-03-30T15:42:11.951Z,16.70
2019-03-30T15:44:42.131Z,22.53
2019-03-30T15:47:12.292Z,19.30
2019-03-30T15:49:42.483Z,19.10
2019-03-30T15:52:14.131Z,17.37
2019-03-30T15:54:44.502Z,17.37
2019-03-30T15:57:14.758Z,15.37
2019-03-30T15:59:44.971Z,14.80
2019-03-30T16:02:15.105Z,16.00
2019-03-30T16:04:45.273Z,17.43
2019-03-30T16:07:15.407Z,15.30
2019-03-30T16:09:45.638Z,15.77
2019-03-30T16:12:15.886Z,16.87
2019-03-30T16:14:46.070Z,15.73
2019-03-30T16:17:16.335Z,18.67
2019-03-30T16:19:46.598Z,17.53
2019-03-30T16:22:17.151Z,19.53
2019-03-30T16:24:47.351Z,13.97
2019-03-30T16:27:28.287Z,14.47
2019-03-30T16:29:49.447Z,14.27
2019-03-30T16:32:19.635Z,17.37
2019-03-30T16:34:49.856Z,13.00
2019-03-30T16:37:20.012Z,13.93
2019-03-30T16:39:50.203Z,14.50
2019-03-30T16:42:21.459Z,14.33
2019-03-30T16:44:53.071Z,13.40
2019-03-30T16:47:23.304Z,12.23
2019-03-30T16:49:53.547Z,15.33
2019-03-30T16:52:23.708Z,15.37
2019-03-30T16:54:53.868Z,13.40
2019-03-30T16:57:24.021Z,13.70
2019-03-30T16:59:55.240Z,13.23
2019-03-30T17:02:26.351Z,14.60
2019-03-30T17:04:56.494Z,16.87
2019-03-30T17:07:27.024Z,14.70
2019-03-30T17:09:57.538Z,13.13
2019-03-30T17:12:27.691Z,12.97
2019-03-30T17:14:58.083Z,16.60
2019-03-30T17:17:28.238Z,12.37
2019-03-30T17:19:58.389Z,16.57
2019-03-30T17:22:28.580Z,15.43
2019-03-30T17:24:58.736Z,17.30
2019-03-30T17:27:28.962Z,22.37
2019-03-30T17:29:59.255Z,28.03
2019-03-30T17:32:29.449Z,38.23
2019-03-30T17:34:59.608Z,40.50
2019-03-30T17:37:29.852Z,45.40
2019-03-30T17:40:00.040Z,48.80
2019-03-30T17:42:30.192Z,61.43
2019-03-30T17:45:00.398Z,50.60
2019-03-30T17:47:30.570Z,53.23
2019-03-30T17:50:00.739Z,49.63
2019-03-30T17:52:30.985Z,48.97
2019-03-30T17:55:01.145Z,52.87
2019-03-30T17:57:31.278Z,56.07
2019-03-30T18:00:01.483Z,52.60
2019-03-30T18:02:31.835Z,68.37
2019-03-30T18:05:02.065Z,59.60
2019-03-30T18:07:32.208Z,55.70
2019-03-30T18:10:03.857Z,57.10
2019-03-30T18:12:35.423Z,60.73
2019-03-30T18:15:07.773Z,66.40
2019-03-30T18:17:38.059Z,62.57
2019-03-30T18:20:08.973Z,69.30
2019-03-30T18:22:39.183Z,70.90
2019-03-30T18:25:09.746Z,66.93
2019-03-30T18:27:39.938Z,72.47
2019-03-30T18:30:10.708Z,80.40
2019-03-30T18:32:41.935Z,78.73
2019-03-30T18:35:12.252Z,73.63
2019-03-30T18:37:43.065Z,76.73
2019-03-30T18:40:22.109Z,87.67
2019-03-30T18:42:52.268Z,81.97
2019-03-30T18:45:27.301Z,72.13
2019-03-30T18:48:10.542Z,81.00
2019-03-30T18:50:41.719Z,75.43
2019-03-30T18:53:11.934Z,78.53
2019-03-30T18:55:42.407Z,78.57
2019-03-30T18:58:12.629Z,80.93
2019-03-30T19:00:42.789Z,83.90
2019-03-30T19:03:13.287Z,82.43
2019-03-30T19:05:43.442Z,88.93
2019-03-30T19:08:13.595Z,92.60
2019-03-30T19:10:43.751Z,83.17
2019-03-30T19:13:14.047Z,86.93
2019-03-30T19:15:44.535Z,89.10
2019-03-30T19:18:14.675Z,97.47
2019-03-30T19:20:44.843Z,93.67
2019-03-30T19:23:15.010Z,94.53
2019-03-30T19:25:46.241Z,91.87
2019-03-30T19:28:17.540Z,88.50
2019-03-30T19:30:47.711Z,85.60
2019-03-30T19:33:17.844Z,83.70
2019-03-30T19:35:47.998Z,85.47
2019-03-30T19:38:18.180Z,80.83
2019-03-30T19:40:48.342Z,82.77
2019-03-30T19:43:17.782Z,86.87
2019-03-30T19:45:47.219Z,80.87
2019-03-30T19:48:16.955Z,89.60
2019-03-30T19:50:46.399Z,85.77
2019-03-30T19:53:15.923Z,77.10
2019-03-30T19:55:45.377Z,77.53
2019-03-30T19:58:14.771Z,81.97
2019-03-30T20:00:44.262Z,91.70
2019-03-30T20:03:13.731Z,86.20
2019-03-30T20:05:44.711Z,78.40
2019-03-30T20:08:14.303Z,81.57
2019-03-30T20:10:43.680Z,88.67
2019-03-30T20:13:13.027Z,80.17
2019-03-30T20:15:42.775Z,94.63
2019-03-30T20:18:12.160Z,80.17
2019-03-30T20:20:41.556Z,86.93
2019-03-30T20:23:10.910Z,81.30
2019-03-30T20:25:40.559Z,79.33
2019-03-30T20:28:09.920Z,93.53
2019-03-30T20:30:39.340Z,89.57
2019-03-30T20:33:08.714Z,88.40
2019-03-30T20:35:38.115Z,84.47
2019-03-30T20:38:07.497Z,91.67
2019-03-30T20:40:37.202Z,84.27
2019-03-30T20:43:06.644Z,84.57
2019-03-30T20:45:36.015Z,91.23
2019-03-30T20:48:05.366Z,89.23
2019-03-30T20:50:34.768Z,82.57
2019-03-30T20:53:04.157Z,85.40
2019-03-30T20:55:34.058Z,83.43
2019-03-30T20:58:03.583Z,88.13
2019-03-30T21:00:32.972Z,90.40
2019-03-30T21:03:02.344Z,91.63
2019-03-30T21:05:31.807Z,99.50
2019-03-30T21:08:01.184Z,97.37
2019-03-30T21:10:30.572Z,97.30
2019-03-30T21:12:59.939Z,96.60
2019-03-30T21:15:29.403Z,96.03
2019-03-30T21:17:59.145Z,89.97
2019-03-30T21:20:28.613Z,96.23
2019-03-30T21:22:57.984Z,92.67
2019-03-30T21:25:27.357Z,93.10
2019-03-30T21:27:56.713Z,91.23
2019-03-30T21:30:26.078Z,92.30
2019-03-30T21:32:55.478Z,97.00
2019-03-30T21:35:25.215Z,96.70
2019-03-30T21:37:54.566Z,91.73
2019-03-30T21:40:23.965Z,96.30
2019-03-30T21:42:53.330Z,99.70
2019-03-30T21:45:22.703Z,93.80
2019-03-30T21:47:52.053Z,96.90
2019-03-30T21:50:21.419Z,101.03
2019-03-30T21:52:50.786Z,107.87
2019-03-30T21:55:20.148Z,93.73
2019-03-30T21:57:49.519Z,98.00
2019-03-30T22:00:32.799Z,98.63
2019-03-30T22:03:02.160Z,92.80
2019-03-30T22:05:31.608Z,87.87
2019-03-30T22:08:01.412Z,92.17
2019-03-30T22:10:30.776Z,95.73
2019-03-30T22:13:00.478Z,103.33
2019-03-30T22:15:30.040Z,89.50
2019-03-30T22:17:59.390Z,91.73
2019-03-30T22:20:28.767Z,73.00
2019-03-30T22:22:58.124Z,94.13
2019-03-30T22:25:27.508Z,89.60
2019-03-30T22:27:56.887Z,85.13
2019-03-30T22:30:26.275Z,83.63
2019-03-30T22:32:55.728Z,87.90
2019-03-30T22:35:25.202Z,89.47
2019-03-30T22:37:54.566Z,92.50
2019-03-30T22:40:23.936Z,89.50
2019-03-30T22:42:53.309Z,86.57
2019-03-30T22:45:22.988Z,81.00
2019-03-30T22:47:52.351Z,93.40
2019-03-30T22:50:21.715Z,95.43
2019-03-30T22:52:51.077Z,87.97
2019-03-30T22:55:20.451Z,93.57
2019-03-30T22:57:49.840Z,96.33
2019-03-30T23:00:39.134Z,94.90
2019-03-30T23:03:12.012Z,96.13
2019-03-30T23:05:42.478Z,83.90
2019-03-30T23:08:12.615Z,100.57
2019-03-30T23:10:42.771Z,91.77
2019-03-30T23:13:12.924Z,83.87
2019-03-30T23:15:43.059Z,84.23
2019-03-30T23:18:13.223Z,83.17
2019-03-30T23:20:43.363Z,81.03
2019-03-30T23:23:13.524Z,89.03
2019-03-30T23:25:44.018Z,88.33
2019-03-30T23:28:14.275Z,79.57
2019-03-30T23:30:54.081Z,80.67
2019-03-30T23:33:16.567Z,80.47
2019-03-30T23:35:46.707Z,83.17
2019-03-30T23:38:17.387Z,76.57
2019-03-30T23:40:47.511Z,72.40
2019-03-30T23:43:17.656Z,69.40
2019-03-30T23:45:47.804Z,65.47
2019-03-30T23:48:17.988Z,60.77
2019-03-30T23:50:48.207Z,58.37
2019-03-30T23:53:18.365Z,68.77
2019-03-30T23:55:48.524Z,68.47
2019-03-30T23:58:18.691Z,61.80
